Time;durP1;ratioP1;P1;durP2;ratioP2;P2;SDS_P1;SDS_P2;PMS_P1;PMS_P2;Temp;Humidity;BMP_temperature;BMP_pressure;BME280_temperature;BME280_humidity;BME280_pressure;Samples;Min_cycle;Max_cycle;Signal;HPM_P1;HPM_P2
2024/04/12 19:49:08;;;;;;;11.03;6.43;;;24.60;45.90;;;;;;5325068;26;20540;-82
2024/04/12 19:51:35;;;;;;;11.10;6.60;;;24.60;45.90;;;;;;5263548;27;20476;-82
2024/04/12 19:54:06;;;;;;;9.30;6.83;;;24.70;46.00;;;;;;5271482;26;20495;-82
2024/04/12 19:56:33;;;;;;;10.33;6.80;;;24.70;45.90;;;;;;5286889;26;20472;-80
2024/04/12 19:59:03;;;;;;;12.07;6.80;;;24.80;46.00;;;;;;5273683;27;20482;-83
2024/04/12 20:01:31;;;;;;;11.00;6.80;;;24.80;45.90;;;;;;5273871;27;20530;-82
2024/04/12 20:04:02;;;;;;;10.23;7.37;;;24.80;46.00;;;;;;5275180;27;20486;-84
2024/04/12 20:06:33;;;;;;;10.57;7.10;;;24.80;46.00;;;;;;5275684;27;20542;-84
2024/04/12 20:09:04;;;;;;;9.63;7.07;;;24.80;46.00;;;;;;5275533;27;20515;-82
2024/04/12 20:11:33;;;;;;;10.70;6.97;;;24.80;46.00;;;;;;5280247;27;20505;-84
2024/04/12 20:14:03;;;;;;;12.17;7.07;;;24.80;46.00;;;;;;5298390;27;20518;-83
2024/04/12 20:16:30;;;;;;;11.10;6.60;;;24.80;46.10;;;;;;5294493;27;20466;-84
2024/04/12 20:19:01;;;;;;;10.23;6.67;;;24.70;46.10;;;;;;5291915;26;20552;-84
2024/04/12 20:21:29;;;;;;;7.50;6.13;;;24.70;46.10;;;;;;5286905;27;20550;-86
2024/04/12 20:24:01;;;;;;;10.63;6.80;;;24.70;46.20;;;;;;5291609;27;20571;-84
2024/04/12 20:26:35;;;;;;;9.23;7.23;;;24.70;46.20;;;;;;5291773;26;20478;-87
2024/04/12 20:29:06;;;;;;;7.50;6.00;;;24.70;46.30;;;;;;5298243;26;20451;-84
2024/04/12 20:31:37;;;;;;;10.07;6.10;;;24.70;46.40;;;;;;5307958;26;20473;-84
2024/04/12 20:34:23;;;;;;;9.67;6.50;;;24.70;46.50;;;;;;5299276;26;20466;-84
2024/04/12 20:36:51;;;;;;;11.57;6.90;;;24.70;46.50;;;;;;5303915;27;20525;-84
2024/04/12 20:39:24;;;;;;;8.23;6.60;;;24.60;46.50;;;;;;5293490;27;20476;-84
2024/04/12 20:41:53;;;;;;;9.40;5.87;;;24.60;46.60;;;;;;5283064;27;20531;-83
2024/04/12 20:44:25;;;;;;;8.17;5.70;;;24.60;46.70;;;;;;5275459;27;20536;-82
2024/04/12 20:46:54;;;;;;;11.50;7.27;;;24.60;46.70;;;;;;5277358;27;20585;-83
2024/04/12 20:49:24;;;;;;;7.73;6.20;;;24.60;46.80;;;;;;5281513;27;20524;-82
2024/04/12 20:51:52;;;;;;;8.37;5.80;;;24.60;47.40;;;;;;5278458;27;20595;-82
2024/04/12 20:54:24;;;;;;;10.73;6.57;;;24.50;46.80;;;;;;5270431;27;20478;-82
2024/04/12 20:56:53;;;;;;;10.93;6.37;;;24.50;46.90;;;;;;5276041;27;20505;-83
2024/04/12 20:59:23;;;;;;;7.87;6.30;;;24.50;47.00;;;;;;5264273;27;20533;-82
2024/04/12 21:01:50;;;;;;;7.90;6.00;;;24.50;47.00;;;;;;5286056;27;20471;-82
2024/04/12 21:04:21;;;;;;;7.70;5.83;;;24.50;47.00;;;;;;5267963;27;20457;-81
2024/04/12 21:06:52;;;;;;;7.80;5.83;;;24.40;47.10;;;;;;5276962;27;20619;-81
2024/04/12 21:09:25;;;;;;;6.80;6.10;;;24.40;47.20;;;;;;5271157;27;20554;-81
2024/04/12 21:11:53;;;;;;;8.87;6.27;;;24.40;47.20;;;;;;5278189;27;20834;-81
2024/04/12 21:14:23;;;;;;;8.60;6.40;;;24.40;47.30;;;;;;5286028;27;20561;-81
2024/04/12 21:16:51;;;;;;;7.00;5.60;;;24.30;47.30;;;;;;5267660;27;20490;-80
2024/04/12 21:19:21;;;;;;;9.60;6.07;;;24.40;47.40;;;;;;5263688;27;20513;-78
2024/04/12 21:21:58;;;;;;;9.30;5.90;;;24.30;47.40;;;;;;5271344;27;20898;-77
2024/04/12 21:24:51;;;;;;;11.90;5.73;;;24.30;47.40;;;;;;5250492;27;20535;-79
2024/04/12 21:27:19;;;;;;;6.93;5.40;;;24.30;47.50;;;;;;5266244;27;20562;-79
2024/04/12 21:29:49;;;;;;;6.93;5.53;;;24.30;47.60;;;;;;5259986;27;20543;-80
2024/04/12 21:32:17;;;;;;;7.40;5.13;;;24.20;47.60;;;;;;5286008;27;20477;-79
2024/04/12 21:34:47;;;;;;;7.97;5.20;;;24.20;47.70;;;;;;5322510;26;20457;-78
2024/04/12 21:37:14;;;;;;;6.40;5.20;;;24.20;47.80;;;;;;5258865;27;20598;-80
2024/04/12 21:39:44;;;;;;;6.50;5.37;;;24.20;47.80;;;;;;5286105;27;20579;-79
2024/04/12 21:42:14;;;;;;;5.70;5.10;;;24.10;47.80;;;;;;5277313;27;20529;-79
2024/04/12 21:44:44;;;;;;;7.23;5.57;;;24.10;47.80;;;;;;5283262;27;20489;-80
2024/04/12 21:47:11;;;;;;;10.40;5.73;;;24.10;48.10;;;;;;5277927;27;20494;-78
2024/04/12 21:49:41;;;;;;;8.97;5.60;;;24.10;48.00;;;;;;5308672;26;20620;-80
2024/04/12 21:52:08;;;;;;;10.53;6.07;;;24.10;48.10;;;;;;5283905;27;20546;-79
2024/04/12 21:54:40;;;;;;;7.90;5.60;;;24.00;48.00;;;;;;5309804;26;20473;-78
2024/04/12 21:57:07;;;;;;;7.60;5.23;;;24.00;48.10;;;;;;5288755;27;20542;-79
2024/04/12 21:59:41;;;;;;;11.00;5.40;;;23.90;48.30;;;;;;5290205;27;20450;-78
2024/04/12 22:02:09;;;;;;;10.30;5.90;;;23.90;48.30;;;;;;5296509;27;20597;-78
2024/04/12 22:04:39;;;;;;;9.20;6.00;;;24.00;49.10;;;;;;5294453;27;20459;-78
2024/04/12 22:07:06;;;;;;;8.00;5.50;;;23.90;48.30;;;;;;5275680;27;20503;-77
2024/04/12 22:09:38;;;;;;;6.47;5.37;;;23.90;48.30;;;;;;5277655;27;20478;-76
2024/04/12 22:12:05;;;;;;;5.00;4.50;;;23.80;48.40;;;;;;5283414;27;20598;-78
2024/04/12 22:14:35;;;;;;;7.60;5.63;;;23.80;48.60;;;;;;5285696;27;20475;-79
2024/04/12 22:17:06;;;;;;;7.43;6.00;;;23.80;48.70;;;;;;5272448;27;20538;-80
2024/04/12 22:19:36;;;;;;;9.10;5.13;;;23.80;48.50;;;;;;5297586;27;20485;-79
2024/04/12 22:22:04;;;;;;;6.77;5.20;;;23.80;48.70;;;;;;5276850;27;21054;-78
2024/04/12 22:24:34;;;;;;;11.53;6.20;;;23.80;48.80;;;;;;5282195;27;20503;-78
2024/04/12 22:27:04;;;;;;;6.60;5.37;;;23.80;48.80;;;;;;5276585;27;20510;-78
2024/04/12 22:29:34;;;;;;;6.93;5.37;;;23.70;48.70;;;;;;5286308;26;20587;-79
2024/04/12 22:32:05;;;;;;;10.67;5.47;;;23.70;48.90;;;;;;5261856;27;20531;-79
2024/04/12 22:34:35;;;;;;;8.40;5.00;;;23.70;49.00;;;;;;5278235;27;21011;-81
2024/04/12 22:37:03;;;;;;;8.27;5.03;;;23.60;48.90;;;;;;5265180;27;20616;-78
2024/04/12 22:39:32;;;;;;;7.80;5.73;;;23.60;49.00;;;;;;5260019;27;20575;-78
2024/04/12 22:42:00;;;;;;;7.03;5.53;;;23.60;49.00;;;;;;5274759;27;20486;-82
2024/04/12 22:44:30;;;;;;;5.20;4.50;;;23.60;49.10;;;;;;5273321;27;20509;-81
2024/04/12 22:46:58;;;;;;;6.30;5.40;;;23.60;49.10;;;;;;5281167;27;20556;-81
2024/04/12 22:49:31;;;;;;;5.37;4.83;;;23.60;49.20;;;;;;5280193;27;20487;-81
2024/04/12 22:51:59;;;;;;;6.23;4.90;;;23.50;49.20;;;;;;5276121;27;20466;-80
2024/04/12 22:54:29;;;;;;;6.67;5.40;;;23.60;49.20;;;;;;5261115;27;20463;-79
2024/04/12 22:56:58;;;;;;;5.17;4.67;;;23.50;49.10;;;;;;5279622;27;20575;-80
2024/04/12 22:59:28;;;;;;;12.50;8.27;;;23.50;49.20;;;;;;5279112;27;20550;-79
2024/04/12 23:01:56;;;;;;;8.57;6.50;;;23.50;49.40;;;;;;5272369;27;20588;-83
2024/04/12 23:04:26;;;;;;;9.10;6.20;;;23.50;49.40;;;;;;5280941;27;20490;-81
2024/04/12 23:06:56;;;;;;;9.67;6.10;;;23.40;49.40;;;;;;5269620;27;20491;-79
2024/04/12 23:09:26;;;;;;;8.10;5.93;;;23.40;49.50;;;;;;5261332;27;20865;-81
2024/04/12 23:11:55;;;;;;;7.27;5.77;;;23.40;49.60;;;;;;5281303;27;20439;-80
2024/04/12 23:14:25;;;;;;;8.00;6.23;;;23.40;49.60;;;;;;5269952;27;20499;-81
2024/04/12 23:16:54;;;;;;;6.87;6.17;;;23.40;49.50;;;;;;5274851;27;20530;-81
2024/04/12 23:19:24;;;;;;;6.60;5.17;;;23.30;49.50;;;;;;5281112;27;20462;-80
2024/04/12 23:21:51;;;;;;;6.03;5.40;;;23.30;49.80;;;;;;5278869;27;20478;-79
2024/04/12 23:24:24;;;;;;;8.10;5.60;;;23.30;49.70;;;;;;5270499;27;20466;-80
2024/04/12 23:26:52;;;;;;;9.23;6.83;;;23.20;49.60;;;;;;5280247;27;20486;-80
2024/04/12 23:29:22;;;;;;;7.30;5.70;;;23.20;49.90;;;;;;5251101;27;20517;-79
2024/04/12 23:31:49;;;;;;;6.07;5.13;;;23.20;50.10;;;;;;5278837;27;20478;-80
2024/04/12 23:34:20;;;;;;;7.30;5.43;;;23.20;49.80;;;;;;5280524;27;20466;-80
2024/04/12 23:36:48;;;;;;;9.53;5.03;;;23.20;50.00;;;;;;5278811;27;20482;-81
2024/04/12 23:39:19;;;;;;;5.83;5.17;;;23.20;50.20;;;;;;5278131;27;20607;-81
2024/04/12 23:41:50;;;;;;;7.80;5.70;;;23.10;49.90;;;;;;5279629;27;20532;-80
2024/04/12 23:44:20;;;;;;;7.40;5.30;;;23.10;50.00;;;;;;5277324;27;20492;-79
2024/04/12 23:46:47;;;;;;;8.50;5.80;;;23.10;50.20;;;;;;5279933;27;20498;-80
2024/04/12 23:49:17;;;;;;;7.27;5.80;;;23.10;50.10;;;;;;5280061;27;20515;-80
2024/04/12 23:51:44;;;;;;;8.50;5.50;;;23.00;50.00;;;;;;5279855;27;20487;-80
2024/04/12 23:54:15;;;;;;;8.10;5.40;;;23.00;50.30;;;;;;5278249;27;21144;-82
2024/04/12 23:56:42;;;;;;;7.53;5.20;;;23.00;50.30;;;;;;5279009;27;20451;-81
2024/04/12 23:59:15;;;;;;;12.80;4.97;;;23.00;50.40;;;;;;5278183;27;20490;-81
